Time;durP1;ratioP1;P1;durP2;ratioP2;P2;SDS_P1;SDS_P2;PMS_P1;PMS_P2;Temp;Humidity;BMP_temperature;BMP_pressure;BME280_temperature;BME280_humidity;BME280_pressure;Samples;Min_cycle;Max_cycle;Signal;HPM_P1;HPM_P2
2024/04/11 00:02:23;;;;;;;6.30;4.23;;;5.70;89.80;;;4.89;92.68;99457.47;5407682;26;20536;-70
2024/04/11 00:04:52;;;;;;;8.03;4.30;;;5.80;90.00;;;4.79;93.48;99460.16;5424616;26;20455;-70
2024/04/11 00:07:24;;;;;;;6.27;4.20;;;5.70;90.10;;;4.59;94.12;99435.22;5415572;26;20528;-69
2024/04/11 00:09:53;;;;;;;6.47;4.40;;;5.60;90.30;;;4.79;93.86;99468.19;5408730;26;20525;-67
2024/04/11 00:12:20;;;;;;;7.13;4.27;;;5.60;90.50;;;4.49;95.03;99473.56;5423439;26;20519;-69
2024/04/11 00:14:49;;;;;;;6.33;4.40;;;5.50;90.40;;;4.45;95.35;99471.31;5412017;26;20608;-70
2024/04/11 00:17:17;;;;;;;5.50;4.30;;;5.40;91.00;;;4.35;95.45;99465.94;5410873;26;21044;-67
2024/04/11 00:19:46;;;;;;;5.77;4.60;;;5.30;91.00;;;4.33;96.50;99470.59;5410766;26;20526;-69
2024/04/11 00:22:12;;;;;;;6.40;4.07;;;5.30;91.30;;;4.25;96.29;99466.78;5414365;26;20499;-67
2024/04/11 00:24:45;;;;;;;5.43;4.20;;;5.20;91.30;;;3.71;96.50;99367.31;5455718;26;20461;-70
2024/04/11 00:27:12;;;;;;;9.30;4.60;;;5.10;91.80;;;4.36;95.25;99456.94;5430846;26;20467;-69
2024/04/11 00:29:41;;;;;;;6.00;3.73;;;5.20;92.00;;;4.23;96.10;99463.41;5426312;26;20447;-69
2024/04/11 00:32:08;;;;;;;8.30;5.00;;;5.10;91.70;;;4.25;96.33;99466.78;5412467;26;20469;-70
2024/04/11 00:34:38;;;;;;;6.63;4.40;;;5.00;91.70;;;4.27;96.22;99452.41;5413684;26;21065;-71
2024/04/11 00:37:08;;;;;;;4.87;4.17;;;5.10;92.10;;;4.15;96.17;99428.44;5420777;26;20451;-69
2024/04/11 00:39:46;;;;;;;5.63;4.67;;;5.10;92.10;;;4.16;96.51;99461.41;5436428;26;20553;-69
2024/04/11 00:42:12;;;;;;;5.10;4.47;;;5.10;91.60;;;4.15;97.12;99454.38;5431741;26;20454;-69
2024/04/11 00:44:43;;;;;;;7.17;4.53;;;4.90;92.10;;;4.25;96.56;99456.06;5419626;26;20580;-69
2024/04/11 00:47:10;;;;;;;8.43;5.60;;;5.00;92.60;;;4.20;96.56;99446.78;5424183;26;20462;-69
2024/04/11 00:49:39;;;;;;;9.10;4.80;;;5.00;92.30;;;4.23;97.08;99446.47;5421463;26;20466;-69
2024/04/11 00:52:07;;;;;;;9.30;5.10;;;5.00;92.50;;;4.29;96.60;99445.94;5413867;26;20526;-69
2024/04/11 00:54:38;;;;;;;5.53;4.70;;;5.10;92.70;;;4.32;96.12;99434.09;5431425;26;21205;-69
2024/04/11 00:57:08;;;;;;;9.17;5.03;;;5.10;92.20;;;4.30;96.81;99441.41;5416693;26;20506;-72
2024/04/11 00:59:38;;;;;;;6.83;4.77;;;5.10;92.30;;;4.16;97.09;99423.97;5418283;26;20533;-70
2024/04/11 01:02:05;;;;;;;9.57;5.03;;;5.20;92.20;;;4.29;97.25;99434.38;5416898;26;20504;-69
2024/04/11 01:04:35;;;;;;;6.87;5.37;;;5.20;92.10;;;4.27;97.42;99425.66;5409170;26;20591;-69
2024/04/11 01:07:08;;;;;;;7.97;4.47;;;5.20;92.10;;;4.30;97.18;99425.38;5424169;26;20472;-70
2024/04/11 01:09:42;;;;;;;9.87;4.50;;;5.30;91.90;;;4.40;96.81;99426.22;5419772;26;20474;-70
2024/04/11 01:12:12;;;;;;;5.10;4.47;;;5.30;91.90;;;4.33;96.68;99404.53;5413563;26;20526;-72
2024/04/11 01:14:45;;;;;;;6.70;5.07;;;5.30;91.70;;;4.34;96.13;99421.44;5412364;26;20460;-71
2024/04/11 01:17:14;;;;;;;6.77;4.93;;;5.30;91.40;;;4.31;95.71;99411.84;5402445;26;20479;-70
2024/04/11 01:19:44;;;;;;;6.57;5.37;;;5.40;91.20;;;4.30;95.95;99420.00;5433938;26;20786;-71
2024/04/11 01:22:11;;;;;;;8.03;4.80;;;5.30;90.90;;;4.36;95.69;99422.16;5413110;26;20451;-70
2024/04/11 01:24:44;;;;;;;5.90;4.60;;;5.30;91.00;;;4.33;96.00;99419.75;5428713;26;20482;-69
2024/04/11 01:27:14;;;;;;;7.07;4.40;;;5.30;91.00;;;4.34;96.00;99421.44;5423272;26;20455;-68
2024/04/11 01:29:43;;;;;;;7.87;4.83;;;5.30;91.00;;;4.21;96.39;99427.06;5414960;26;20599;-69
2024/04/11 01:32:09;;;;;;;6.37;5.10;;;5.30;90.90;;;4.26;96.13;99435.53;5413036;26;20493;-68
2024/04/11 01:34:39;;;;;;;6.77;4.80;;;5.20;91.10;;;4.21;96.08;99419.03;5409273;26;20460;-69
2024/04/11 01:37:08;;;;;;;9.27;5.00;;;5.20;91.20;;;4.06;96.33;99415.94;5445304;26;20578;-68
2024/04/11 01:39:35;;;;;;;5.47;4.90;;;5.10;91.10;;;4.12;96.70;99410.00;5410750;26;21101;-70
2024/04/11 01:42:08;;;;;;;7.50;5.20;;;5.10;91.40;;;3.90;96.82;99377.22;5421255;26;20507;-70
2024/04/11 01:44:35;;;;;;;7.40;5.07;;;5.10;91.40;;;4.02;96.75;99387.75;5392306;26;21661;-70
2024/04/11 01:47:04;;;;;;;8.20;5.13;;;5.10;91.40;;;4.06;97.00;99399.88;5424488;26;20772;-69
2024/04/11 01:49:31;;;;;;;8.27;5.53;;;5.10;91.40;;;4.09;96.96;99404.94;5408786;26;20959;-71
2024/04/11 01:52:02;;;;;;;6.53;4.90;;;5.10;91.60;;;4.05;97.17;99406.22;5417468;26;20470;-70
2024/04/11 01:54:30;;;;;;;5.43;4.80;;;5.10;91.50;;;4.07;97.21;99406.91;5400018;26;20797;-69
2024/04/11 01:57:02;;;;;;;7.47;5.00;;;5.10;91.50;;;4.11;97.08;99403.84;5420329;26;20611;-69
2024/04/11 01:59:33;;;;;;;8.57;5.60;;;5.00;91.70;;;4.06;96.77;99402.56;5410455;26;20470;-68
2024/04/11 02:02:02;;;;;;;8.53;5.30;;;5.00;91.50;;;4.10;96.63;99406.63;5422011;26;20548;-69
2024/04/11 02:04:30;;;;;;;9.90;5.50;;;5.00;91.80;;;4.06;96.29;99408.75;5445617;26;20509;-69
2024/04/11 02:07:00;;;;;;;6.00;4.80;;;4.90;91.70;;;4.03;96.11;99405.50;5434262;26;20470;-68
2024/04/11 02:09:31;;;;;;;8.73;5.40;;;4.90;91.70;;;3.93;95.95;99392.97;5422202;26;20461;-68
2024/04/11 02:12:00;;;;;;;8.23;6.30;;;4.90;91.60;;;4.03;96.20;99408.19;5385648;26;21053;-69
2024/04/11 02:14:27;;;;;;;10.53;4.90;;;4.90;91.70;;;3.94;96.21;99410.69;5407440;26;20452;-69
2024/04/11 02:17:07;;;;;;;9.90;6.97;;;4.80;91.70;;;3.94;96.60;99415.19;5432301;26;20553;-69
2024/04/11 02:19:33;;;;;;;8.90;4.93;;;4.80;91.90;;;3.90;96.20;99408.44;5397035;26;20577;-68
2024/04/11 02:22:02;;;;;;;6.03;5.10;;;4.80;91.70;;;3.90;96.25;99416.47;5427790;26;20583;-69
2024/04/11 02:24:30;;;;;;;6.77;4.80;;;4.70;91.50;;;3.85;96.38;99416.03;5418733;26;20509;-68
2024/04/11 02:27:03;;;;;;;8.77;6.47;;;4.70;91.60;;;3.80;96.67;99421.78;5410533;26;20534;-69
2024/04/11 02:29:29;;;;;;;11.00;5.77;;;4.70;91.90;;;3.76;97.50;99423.06;5393635;26;20592;-70
2024/04/11 02:32:00;;;;;;;11.10;5.77;;;4.70;92.20;;;3.76;96.89;99409.69;5408407;26;20572;-70
2024/04/11 02:34:28;;;;;;;9.90;6.40;;;4.70;92.00;;;3.78;97.31;99426.44;5417040;26;20576;-70
2024/04/11 02:36:58;;;;;;;9.90;5.77;;;4.70;92.00;;;3.68;96.71;99408.53;5426639;26;20469;-71
2024/04/11 02:39:25;;;;;;;12.10;5.73;;;4.70;92.00;;;3.75;97.13;99419.53;5415386;26;21407;-69
2024/04/11 02:41:54;;;;;;;13.27;6.33;;;4.60;91.80;;;3.69;96.98;99430.78;5439091;26;20476;-69
2024/04/11 02:44:20;;;;;;;9.50;6.13;;;4.60;91.70;;;3.59;96.67;99395.16;5409389;26;21076;-70
2024/04/11 02:46:50;;;;;;;13.90;7.20;;;4.60;91.80;;;3.74;96.60;99422.34;5423432;26;20553;-71
2024/04/11 02:49:22;;;;;;;9.30;6.10;;;4.60;91.70;;;3.70;96.67;99429.78;5412557;26;20557;-71
2024/04/11 02:51:53;;;;;;;11.70;8.13;;;4.60;91.70;;;3.68;96.93;99427.25;5418931;26;20548;-71
2024/04/11 02:54:20;;;;;;;12.30;5.60;;;4.60;91.80;;;3.65;97.34;99438.22;5411356;26;20548;-69
2024/04/11 02:56:49;;;;;;;13.67;6.83;;;4.50;91.80;;;3.52;98.05;99422.44;5406922;26;20508;-69
2024/04/11 02:59:15;;;;;;;7.90;5.53;;;4.50;91.90;;;3.57;98.02;99440.75;5419134;26;20469;-70
2024/04/11 03:01:44;;;;;;;11.10;5.97;;;4.40;92.20;;;3.54;97.92;99424.94;5414227;26;20869;-69
2024/04/11 03:04:11;;;;;;;13.00;6.10;;;4.40;92.60;;;3.58;98.54;99429.06;5419083;26;20464;-70
2024/04/11 03:06:43;;;;;;;13.60;6.00;;;4.40;92.90;;;3.49;98.10;99421.84;5408687;26;20511;-71
2024/04/11 03:09:10;;;;;;;11.43;6.20;;;4.40;92.80;;;3.50;98.75;99435.09;5399807;26;20451;-70
2024/04/11 03:11:40;;;;;;;10.97;6.00;;;4.30;92.90;;;3.55;98.65;99437.31;5405329;26;20466;-70
2024/04/11 03:14:06;;;;;;;8.83;5.67;;;4.30;93.40;;;3.49;98.59;99437.88;5412238;26;20507;-70
2024/04/11 03:16:36;;;;;;;7.63;5.40;;;4.30;93.30;;;3.45;98.42;99437.28;5422945;26;20805;-71
2024/04/11 03:19:04;;;;;;;10.40;5.50;;;4.30;93.20;;;3.49;98.39;99451.25;5428614;26;21823;-70
2024/04/11 03:21:32;;;;;;;7.50;5.27;;;4.30;93.40;;;3.49;98.68;99444.09;5408917;26;20472;-69
2024/04/11 03:24:02;;;;;;;9.90;5.60;;;4.30;93.40;;;3.56;98.16;99447.03;5403265;26;20899;-69
2024/04/11 03:26:31;;;;;;;6.30;4.77;;;4.40;93.30;;;3.49;98.21;99443.22;5394600;26;20542;-68
2024/04/11 03:28:57;;;;;;;11.57;4.90;;;4.40;93.20;;;3.56;97.87;99455.06;5441867;26;21506;-69
2024/04/11 03:31:26;;;;;;;7.57;5.30;;;4.40;92.80;;;3.53;97.83;99444.63;5414735;26;20451;-69
2024/04/11 03:33:57;;;;;;;6.57;5.00;;;4.40;92.60;;;3.51;97.65;99452.81;5405438;26;20446;-70
2024/04/11 03:36:27;;;;;;;8.17;5.30;;;4.40;92.50;;;3.42;98.51;99447.44;5412561;26;20467;-70
2024/04/11 03:38:54;;;;;;;6.23;4.70;;;4.30;92.60;;;3.45;98.49;99447.16;5413035;26;20461;-70
2024/04/11 03:41:26;;;;;;;8.30;5.50;;;4.30;93.10;;;3.39;98.55;99448.53;5421585;26;20570;-71
2024/04/11 03:43:56;;;;;;;6.40;5.13;;;4.20;92.90;;;3.44;98.21;99443.63;5404193;26;20945;-69
2024/04/11 03:46:25;;;;;;;6.20;5.10;;;4.30;93.30;;;3.49;98.15;99453.91;5423304;26;20520;-70
2024/04/11 03:48:58;;;;;;;7.23;4.97;;;4.30;93.00;;;3.44;97.98;99450.81;5411311;26;20470;-69
2024/04/11 03:51:27;;;;;;;7.10;5.03;;;4.30;92.80;;;3.48;97.70;99462.91;5387989;26;21020;-70
2024/04/11 03:54:00;;;;;;;6.77;4.93;;;4.30;92.70;;;3.43;97.43;99465.16;5415141;26;20550;-69
2024/04/11 03:56:30;;;;;;;5.93;4.30;;;4.30;92.50;;;3.36;97.66;99468.34;5415143;26;20522;-68
2024/04/11 03:59:01;;;;;;;6.27;5.30;;;4.30;92.50;;;3.18;98.08;99440.56;5422406;26;20831;-70
2024/04/11 04:01:28;;;;;;;12.27;5.30;;;4.30;92.30;;;3.33;98.20;99467.75;5390703;26;20458;-70
2024/04/11 04:04:04;;;;;;;5.53;4.50;;;4.20;92.40;;;3.24;97.65;99461.38;5429463;26;20512;-69
2024/04/11 04:06:33;;;;;;;7.60;4.77;;;4.20;92.20;;;3.15;98.33;99468.38;5432734;26;20549;-69
2024/04/11 04:09:07;;;;;;;6.43;4.80;;;4.10;92.40;;;3.18;98.30;99468.09;5428436;26;20494;-70
2024/04/11 04:11:37;;;;;;;7.47;5.70;;;4.10;92.40;;;3.11;98.14;99469.63;5402185;26;20459;-70
2024/04/11 04:14:08;;;;;;;6.90;4.73;;;4.10;92.40;;;3.14;98.24;99477.34;5428348;26;21575;-69
2024/04/11 04:16:35;;;;;;;7.67;4.90;;;4.10;92.60;;;3.10;98.64;99476.78;5416196;26;20510;-70
2024/04/11 04:19:05;;;;;;;9.40;4.70;;;4.00;92.60;;;3.07;99.25;99477.03;5413875;26;20465;-70
2024/04/11 04:21:35;;;;;;;8.67;4.53;;;4.00;92.70;;;3.03;99.70;99474.75;5452397;26;21101;-69
2024/04/11 04:24:05;;;;;;;10.20;4.83;;;4.00;92.80;;;2.94;100.00;99481.72;5436985;26;20510;-69
2024/04/11 04:26:34;;;;;;;8.30;5.37;;;3.90;93.10;;;2.99;100.00;99479.53;5417311;26;20519;-69
2024/04/11 04:29:03;;;;;;;8.80;6.43;;;3.90;93.30;;;3.04;99.79;99488.00;5413894;26;20834;-69
2024/04/11 04:31:37;;;;;;;14.53;5.40;;;3.90;93.50;;;2.96;99.55;99477.97;5412718;26;20462;-69
2024/04/11 04:34:03;;;;;;;8.87;5.87;;;3.90;93.50;;;3.04;99.20;99488.00;5412081;26;20465;-69
2024/04/11 04:36:40;;;;;;;8.47;5.60;;;3.90;93.20;;;3.08;98.87;99496.59;5420270;26;20462;-69
2024/04/11 04:39:07;;;;;;;9.47;5.50;;;4.00;93.60;;;3.02;99.18;99495.28;5418583;26;20621;-73
2024/04/11 04:41:38;;;;;;;8.07;6.20;;;4.00;93.00;;;3.06;99.30;99496.72;5417549;26;20527;-73
2024/04/11 04:44:07;;;;;;;9.23;5.30;;;4.00;93.10;;;3.00;99.27;99497.25;5391640;26;21096;-72
2024/04/11 04:46:39;;;;;;;7.87;5.90;;;4.00;93.00;;;2.64;99.62;99454.84;5424732;26;20466;-74
2024/04/11 04:49:09;;;;;;;10.40;5.37;;;3.90;92.80;;;2.91;100.00;99488.19;5432645;26;20447;-75
2024/04/11 04:51:39;;;;;;;10.60;5.53;;;3.90;93.30;;;3.04;99.55;99492.50;5421187;26;20807;-74
2024/04/11 04:54:11;;;;;;;10.53;5.90;;;4.00;93.40;;;3.08;98.74;99478.72;5413349;26;21232;-75
2024/04/11 04:56:41;;;;;;;11.70;5.83;;;4.10;92.90;;;3.28;98.10;99505.56;5422513;26;20507;-75
2024/04/11 04:59:12;;;;;;;10.53;5.60;;;4.20;92.70;;;3.38;97.28;99517.16;5419208;26;20461;-73
2024/04/11 05:01:42;;;;;;;7.00;5.70;;;4.30;92.20;;;3.50;96.35;99504.56;5427230;26;20470;-79
2024/04/11 05:04:08;;;;;;;12.80;5.33;;;4.50;91.80;;;3.59;96.67;99510.94;5409936;26;20447;-69
2024/04/11 05:06:37;;;;;;;8.80;5.67;;;4.60;91.40;;;3.69;95.62;99508.31;5418141;26;20479;-70
2024/04/11 05:09:10;;;;;;;7.50;5.30;;;4.70;90.70;;;3.93;94.75;99521.34;5429607;26;20468;-70
2024/04/11 05:11:40;;;;;;;7.90;6.27;;;4.90;90.10;;;3.91;93.48;99501.91;5427484;26;20514;-69
2024/04/11 05:14:07;;;;;;;13.30;6.43;;;5.10;88.60;;;4.21;91.84;99529.59;5409261;26;20548;-71
2024/04/11 05:16:41;;;;;;;9.70;6.77;;;5.30;87.30;;;4.37;90.17;99523.69;5400815;26;20506;-69
2024/04/11 05:19:11;;;;;;;14.23;5.70;;;5.50;85.90;;;4.14;89.20;99453.50;5422178;26;20445;-69
2024/04/11 05:21:39;;;;;;;10.63;6.50;;;5.70;84.80;;;4.80;87.83;99529.66;5418550;26;20458;-68
2024/04/11 05:24:09;;;;;;;8.03;5.30;;;6.00;83.90;;;5.16;86.67;99523.72;5379018;26;20571;-67
2024/04/11 05:26:37;;;;;;;10.70;7.27;;;6.30;83.20;;;5.20;85.28;99525.09;5427786;26;20482;-68
2024/04/11 05:29:07;;;;;;;12.10;5.83;;;6.50;82.10;;;5.22;84.01;99522.25;5424906;26;21014;-68
2024/04/11 05:31:39;;;;;;;6.50;5.33;;;6.50;80.80;;;5.08;83.42;99508.34;5423022;26;20479;-68
2024/04/11 05:34:06;;;;;;;9.37;4.53;;;6.50;80.40;;;5.20;83.17;99526.91;5407970;26;20457;-67
2024/04/11 05:36:35;;;;;;;12.63;5.80;;;6.50;80.00;;;5.28;82.80;99521.69;5417292;26;20454;-68
2024/04/11 05:39:04;;;;;;;8.30;5.20;;;6.60;80.00;;;5.22;83.42;99523.13;5420187;26;20514;-68
2024/04/11 05:41:34;;;;;;;7.80;4.40;;;6.50;80.20;;;5.21;84.06;99525.94;5412709;26;20589;-66
2024/04/11 05:44:01;;;;;;;7.77;5.27;;;6.30;80.80;;;5.13;84.46;99528.50;5412900;26;20446;-72
2024/04/11 05:46:30;;;;;;;7.03;4.70;;;6.20;81.10;;;5.07;84.05;99530.75;5415249;26;20598;-67
2024/04/11 05:48:59;;;;;;;10.27;5.80;;;6.20;81.00;;;5.06;84.46;99525.53;5448409;26;20457;-67
2024/04/11 05:51:29;;;;;;;7.63;5.10;;;6.10;81.20;;;5.04;85.53;99532.88;5414195;26;20544;-74
2024/04/11 05:53:55;;;;;;;8.37;4.87;;;6.00;81.80;;;5.17;84.22;99532.56;5414853;26;22875;-79
2024/04/11 05:56:24;;;;;;;12.52;5.55;;;6.10;81.70;;;4.94;83.66;99471.28;5407649;26;21112;-68
2024/04/11 05:58:51;;;;;;;10.93;5.77;;;6.20;81.50;;;5.35;83.32;99533.53;5410273;26;20363;-69
2024/04/11 06:01:20;;;;;;;9.40;5.32;;;6.30;81.40;;;5.34;83.10;99537.19;5424301;26;20408;-76
2024/04/11 06:03:50;;;;;;;5.93;4.40;;;6.30;81.40;;;5.57;82.80;99542.22;5410913;26;20459;-72
2024/04/11 06:06:22;;;;;;;9.00;5.17;;;6.40;81.30;;;5.67;83.42;99531.47;5437583;26;20681;-74
2024/04/11 06:08:55;;;;;;;6.93;5.30;;;6.60;81.80;;;5.35;82.87;99538.88;5424096;26;20450;-75
2024/04/11 06:11:22;;;;;;;8.60;5.10;;;6.40;80.60;;;5.44;82.69;99536.34;5438286;26;20575;-74
2024/04/11 06:13:53;;;;;;;8.20;5.20;;;6.40;80.70;;;5.50;82.43;99539.28;5404981;26;20964;-72
2024/04/11 06:16:19;;;;;;;12.10;5.73;;;6.50;80.80;;;5.82;82.19;99545.22;5408024;26;20506;-74
2024/04/11 06:18:48;;;;;;;10.43;5.80;;;6.60;81.10;;;6.02;81.07;99537.16;5423345;26;20500;-71
2024/04/11 06:21:18;;;;;;;8.73;5.83;;;6.80;80.90;;;5.66;81.75;99546.69;5431046;26;20536;-74
2024/04/11 06:23:50;;;;;;;9.40;6.70;;;6.70;80.40;;;5.86;81.33;99546.66;5416247;26;20532;-71
2024/04/11 06:26:17;;;;;;;11.30;5.67;;;6.70;80.50;;;5.88;80.43;99541.97;5418694;26;20595;-73
2024/04/11 06:28:47;;;;;;;8.33;5.67;;;6.80;80.00;;;6.16;80.05;99546.53;5449585;26;20473;-82
2024/04/11 06:31:14;;;;;;;10.77;6.60;;;6.90;80.10;;;6.34;79.08;99542.03;5422179;26;20459;-78
2024/04/11 06:33:43;;;;;;;8.63;5.97;;;7.20;79.90;;;6.56;77.46;99533.72;5410603;26;20458;-80
2024/04/11 06:36:10;;;;;;;8.30;5.53;;;7.40;79.40;;;6.77;77.11;99534.28;5419783;26;20470;-81
2024/04/11 06:38:39;;;;;;;9.30;6.03;;;7.50;79.10;;;6.76;76.38;99547.84;5443608;26;20482;-76
2024/04/11 06:41:13;;;;;;;9.53;5.53;;;7.60;78.70;;;6.98;76.63;99543.84;5426810;26;20502;-81
2024/04/11 06:43:42;;;;;;;5.70;5.17;;;7.70;78.80;;;7.21;75.42;99549.59;5413645;26;21017;-78
2024/04/11 06:46:10;;;;;;;9.73;5.77;;;7.90;78.50;;;7.43;74.34;99538.47;5447916;26;20501;-79
2024/04/11 06:48:39;;;;;;;9.13;6.20;;;8.10;78.10;;;7.52;74.13;99542.91;5411227;26;20451;-72
2024/04/11 06:51:06;;;;;;;11.27;6.90;;;8.20;77.60;;;7.54;73.71;99551.69;5409234;26;20877;-74
2024/04/11 06:53:36;;;;;;;7.90;5.80;;;8.30;77.30;;;7.35;74.32;99552.72;5425797;26;20480;-69
2024/04/11 06:56:07;;;;;;;11.10;6.73;;;8.20;77.10;;;7.51;73.48;99544.75;5409236;26;20769;-69
2024/04/11 06:58:45;;;;;;;13.60;6.70;;;8.40;77.00;;;7.70;73.42;99550.09;5420183;26;20506;-69
2024/04/11 07:01:15;;;;;;;10.17;6.40;;;8.50;77.20;;;7.92;72.58;99562.97;5416649;26;20838;-69
2024/04/11 07:03:49;;;;;;;7.80;6.80;;;8.60;77.00;;;8.04;71.86;99552.78;5417235;26;21195;-69
2024/04/11 07:06:21;;;;;;;7.43;5.90;;;8.70;76.50;;;8.26;70.26;99546.97;5418598;26;20508;-68
2024/04/11 07:08:52;;;;;;;8.03;5.63;;;9.00;75.60;;;8.23;69.82;99551.66;5413983;26;20482;-70
2024/04/11 07:11:19;;;;;;;12.67;6.77;;;9.00;75.00;;;8.39;68.67;99560.81;5428329;26;20454;-69
2024/04/11 07:13:53;;;;;;;10.07;5.90;;;9.20;74.70;;;8.50;69.04;99559.72;5425391;26;20459;-69
2024/04/11 07:16:25;;;;;;;10.00;6.63;;;9.20;74.50;;;8.42;68.70;99544.34;5416302;26;20458;-69
2024/04/11 07:18:57;;;;;;;13.50;6.60;;;9.30;74.20;;;8.85;68.32;99556.91;5415114;26;20456;-69
2024/04/11 07:21:25;;;;;;;9.07;5.93;;;9.50;74.50;;;8.87;68.37;99553.03;5409758;26;20449;-68
2024/04/11 07:23:57;;;;;;;10.77;6.00;;;9.60;74.20;;;9.02;67.20;99550.53;5407652;26;20553;-71
2024/04/11 07:26:29;;;;;;;7.90;5.83;;;9.70;73.70;;;9.30;66.50;99560.97;5407001;26;20455;-69
2024/04/11 07:29:03;;;;;;;8.80;6.60;;;9.90;73.50;;;9.00;65.99;99513.97;5410678;26;20456;-70
2024/04/11 07:31:31;;;;;;;9.00;7.00;;;10.00;71.80;;;9.50;65.16;99557.94;5417777;26;20514;-70
2024/04/11 07:34:02;;;;;;;13.03;7.40;;;10.20;71.50;;;9.56;64.46;99570.72;5407726;26;20510;-69
2024/04/11 07:36:30;;;;;;;11.47;7.27;;;10.30;70.80;;;9.60;64.74;99563.16;5418489;26;20511;-69
2024/04/11 07:39:01;;;;;;;9.27;8.10;;;10.30;70.60;;;9.76;63.60;99570.34;5424951;26;20517;-69
2024/04/11 07:41:28;;;;;;;12.40;7.40;;;10.50;70.20;;;9.79;63.24;99572.72;5412757;26;20507;-69
2024/04/11 07:44:06;;;;;;;6.93;6.20;;;10.50;69.80;;;9.88;63.51;99571.69;5410325;26;20547;-69
2024/04/11 07:46:33;;;;;;;9.07;6.83;;;10.60;69.80;;;10.05;62.26;99577.88;5421014;26;20449;-71
2024/04/11 07:49:07;;;;;;;7.13;6.43;;;10.60;69.10;;;10.19;61.82;99568.19;5428346;26;20466;-70
2024/04/11 07:51:34;;;;;;;9.07;6.23;;;10.80;68.90;;;10.39;61.53;99577.75;5413747;26;20521;-71
2024/04/11 07:54:04;;;;;;;8.80;6.47;;;10.90;68.60;;;10.44;60.96;99572.69;5419995;26;20447;-70
2024/04/11 07:56:34;;;;;;;7.63;6.00;;;11.10;68.10;;;10.23;61.02;99579.50;5429555;26;20512;-70
2024/04/11 07:59:06;;;;;;;8.83;5.57;;;11.00;67.50;;;10.31;60.91;99581.31;5394334;26;20567;-70
2024/04/11 08:01:34;;;;;;;8.63;6.00;;;11.00;67.40;;;10.48;60.69;99577.56;5437904;26;20510;-70
2024/04/11 08:04:05;;;;;;;8.43;6.23;;;11.10;67.70;;;10.74;59.95;99578.25;5408848;26;20471;-70
2024/04/11 08:06:33;;;;;;;9.80;6.03;;;11.30;67.30;;;10.84;59.30;99573.47;5422676;26;20513;-69
2024/04/11 08:09:06;;;;;;;9.50;5.10;;;11.40;66.80;;;10.84;58.05;99576.16;5431341;26;20477;-69
2024/04/11 08:11:34;;;;;;;9.53;5.90;;;11.50;65.60;;;10.76;58.24;99579.78;5414522;26;20902;-70
2024/04/11 08:14:07;;;;;;;8.90;5.37;;;11.40;65.50;;;10.85;57.84;99575.16;5430494;26;20513;-70
2024/04/11 08:16:36;;;;;;;7.47;5.40;;;11.50;65.00;;;10.94;57.75;99585.94;5424547;26;20462;-71
2024/04/11 08:19:09;;;;;;;14.40;6.40;;;11.60;65.00;;;11.20;56.75;99583.69;5409186;26;20481;-70
2024/04/11 08:21:36;;;;;;;9.80;5.77;;;11.70;64.40;;;10.85;56.67;99515.66;5413394;26;20986;-70
2024/04/11 08:24:04;;;;;;;7.50;4.93;;;11.80;64.10;;;11.39;56.50;99572.56;5415066;26;20525;-72
2024/04/11 08:26:33;;;;;;;7.70;5.30;;;12.00;64.30;;;11.19;56.96;99578.47;5422038;26;20461;-69
2024/04/11 08:29:03;;;;;;;10.13;6.40;;;12.00;63.90;;;11.29;56.94;99587.16;5415720;26;20507;-70
2024/04/11 08:31:34;;;;;;;8.10;5.80;;;12.00;63.80;;;11.57;56.26;99578.47;5433097;26;20797;-70
2024/04/11 08:34:03;;;;;;;6.80;5.50;;;12.10;63.90;;;11.74;55.06;99575.59;5408568;26;20459;-70
2024/04/11 08:36:29;;;;;;;8.50;5.40;;;12.20;63.10;;;11.65;54.34;99582.13;5420415;26;20467;-71
2024/04/11 08:39:00;;;;;;;15.43;4.80;;;12.30;61.90;;;11.73;53.69;99557.66;5424022;26;20476;-69
2024/04/11 08:41:27;;;;;;;6.70;5.60;;;12.40;61.30;;;11.44;54.39;99516.00;5402633;26;20467;-69
2024/04/11 08:43:57;;;;;;;7.07;4.93;;;12.40;61.70;;;12.14;53.79;99587.03;5449555;26;20518;-69
2024/04/11 08:46:24;;;;;;;7.23;5.33;;;12.60;61.80;;;12.19;53.48;99573.75;5411118;26;20462;-69
2024/04/11 08:48:56;;;;;;;5.10;3.97;;;12.80;61.40;;;12.28;52.69;99588.09;5406928;26;20536;-72
2024/04/11 08:51:23;;;;;;;7.60;4.43;;;12.90;60.80;;;12.41;52.04;99576.56;5415509;26;20507;-71
2024/04/11 08:53:56;;;;;;;7.03;4.70;;;13.10;60.00;;;12.01;52.18;99592.25;5410575;26;20526;-71
2024/04/11 08:56:22;;;;;;;7.67;4.30;;;12.90;59.10;;;11.99;52.31;99594.31;5424095;26;20511;-71
2024/04/11 08:58:52;;;;;;;7.70;3.63;;;12.90;59.00;;;12.27;51.59;99574.72;5429172;26;20494;-71
2024/04/11 09:01:20;;;;;;;7.90;2.67;;;13.00;58.90;;;12.57;50.04;99574.66;5427548;26;20535;-72
2024/04/11 09:03:49;;;;;;;4.30;2.30;;;13.20;58.00;;;12.52;48.71;99577.13;5422080;26;20489;-70
2024/04/11 09:06:24;;;;;;;3.97;3.00;;;13.30;56.20;;;12.40;49.49;99566.75;5423465;26;20520;-72
2024/04/11 09:08:56;;;;;;;5.20;3.63;;;13.30;56.40;;;12.37;49.20;99561.72;5405831;26;20572;-69
2024/04/11 09:11:26;;;;;;;6.40;3.30;;;13.30;56.40;;;12.72;49.20;99588.16;5427834;26;21514;-70
2024/04/11 09:13:54;;;;;;;4.80;3.23;;;13.40;56.50;;;12.50;49.12;99571.00;5409125;26;21110;-69
2024/04/11 09:16:26;;;;;;;10.00;3.83;;;13.40;55.80;;;12.51;49.59;99583.53;5409890;26;20473;-69
2024/04/11 09:19:04;;;;;;;5.40;4.17;;;13.40;56.00;;;12.52;49.58;99583.38;5414787;26;20530;-68
2024/04/11 09:21:42;;;;;;;6.47;3.50;;;13.40;56.00;;;12.46;50.02;99565.97;5409360;26;20455;-69
2024/04/11 09:24:16;;;;;;;3.50;3.07;;;13.30;56.20;;;12.82;49.16;99568.91;5413286;26;20478;-71
2024/04/11 09:26:43;;;;;;;9.10;3.67;;;13.50;56.10;;;13.03;48.31;99573.47;5427759;26;20446;-71
2024/04/11 09:29:12;;;;;;;5.10;3.30;;;13.70;55.40;;;13.02;47.54;99572.66;5419058;26;20472;-71
2024/04/11 09:31:39;;;;;;;6.33;3.43;;;13.70;54.90;;;13.23;47.53;99579.09;5426608;26;20773;-70
2024/04/11 09:34:12;;;;;;;8.33;2.60;;;13.90;55.00;;;13.26;47.21;99572.44;5428776;26;20541;-70
2024/04/11 09:36:47;;;;;;;6.50;3.70;;;14.00;54.70;;;12.83;47.35;99524.47;5418035;26;20496;-70
2024/04/11 09:39:41;;;;;;;5.20;3.70;;;13.90;54.40;;;13.18;46.84;99578.84;5414891;26;20523;-71
2024/04/11 09:42:11;;;;;;;6.40;3.63;;;14.00;54.30;;;13.42;46.53;99587.59;5419099;26;20594;-71
2024/04/11 09:44:47;;;;;;;7.83;3.77;;;14.10;54.00;;;12.81;47.61;99578.03;5422115;26;20454;-71
2024/04/11 09:47:18;;;;;;;7.30;2.90;;;13.80;53.70;;;12.85;47.07;99516.97;5422282;26;20652;-73
2024/04/11 09:49:53;;;;;;;3.23;2.40;;;13.90;53.80;;;13.43;46.50;99584.75;5414210;26;20445;-69
2024/04/11 09:52:27;;;;;;;4.73;2.57;;;14.10;53.60;;;13.20;46.19;99584.91;5452825;26;20472;-69
2024/04/11 09:55:02;;;;;;;4.90;2.80;;;14.00;52.70;;;13.38;46.62;99575.47;5423031;26;20463;-72
2024/04/11 09:57:30;;;;;;;5.90;3.10;;;14.10;53.30;;;13.70;45.90;99584.09;5413330;26;20466;-71
2024/04/11 10:00:07;;;;;;;5.03;2.73;;;14.30;53.20;;;13.87;44.98;99585.47;5420471;26;20502;-71
2024/04/11 10:02:38;;;;;;;3.73;2.37;;;14.50;52.50;;;13.94;44.94;99584.69;5393680;26;21117;-71
2024/04/11 10:05:09;;;;;;;3.70;2.80;;;14.60;52.70;;;13.92;44.77;99581.34;5408732;26;20504;-71
2024/04/11 10:07:41;;;;;;;4.33;2.70;;;14.70;52.20;;;13.87;44.31;99590.91;5432989;26;20457;-69
2024/04/11 10:10:21;;;;;;;4.37;2.30;;;14.60;51.70;;;13.93;43.91;99585.75;5416686;26;20522;-69
2024/04/11 10:12:50;;;;;;;4.90;2.87;;;14.60;51.50;;;13.88;45.15;99592.63;5407862;26;20562;-69
2024/04/11 10:15:21;;;;;;;4.27;2.17;;;14.60;52.00;;;13.98;45.32;99588.69;5408194;26;20587;-70
2024/04/11 10:18:03;;;;;;;4.93;2.40;;;14.70;52.10;;;14.04;44.31;99558.03;5426707;26;20449;-69
2024/04/11 10:20:42;;;;;;;4.27;2.83;;;14.80;51.80;;;14.27;43.24;99584.03;5409528;26;20510;-70
2024/04/11 10:23:15;;;;;;;4.80;2.57;;;14.90;51.10;;;14.08;43.71;99581.03;5400880;26;20467;-70
2024/04/11 10:25:49;;;;;;;3.57;2.20;;;14.90;51.00;;;13.80;43.46;99524.84;5430527;26;20477;-70
2024/04/11 10:28:18;;;;;;;2.80;1.60;;;14.90;51.00;;;14.24;44.08;99576.31;5411783;26;21207;-70
2024/04/11 10:30:52;;;;;;;3.80;2.30;;;14.90;51.20;;;14.19;44.74;99576.91;5409621;26;20566;-70
2024/04/11 10:33:29;;;;;;;3.23;1.80;;;14.90;51.50;;;14.34;43.33;99563.19;5427638;26;20541;-70
2024/04/11 10:35:58;;;;;;;4.87;2.40;;;15.10;51.20;;;14.11;42.04;99522.72;5426503;26;21254;-70
2024/04/11 10:38:27;;;;;;;2.90;1.80;;;15.20;50.00;;;14.25;42.66;99583.41;5417355;26;20527;-71
2024/04/11 10:40:58;;;;;;;3.90;1.97;;;15.00;49.80;;;14.44;42.04;99569.06;5395642;26;20534;-71